Tannersville, Virginia
Current Conditions -  °F | °C
As of 10:55 PM on Tuesday 25 Nov 2014 (Local Time) from KJFZ Reporting Station
Clear Clear  
Wind Chill:   Ceiling: Unl
Heat Index:   Visibility: 10mi
Dew Point: -4°   Wind: 5mph
Humidity: 42%   Direction: 50°NE
Pressure: 30.06"   Gusts: NA
Location:  36.98°N, 81.63°W
Report Text: KJFZ 260355Z AUTO 05004KT 10SM CLR 08/M04 A3006 RMK AO2 T00801043
Loading
Personal Weather Stations






























Interactive Weather Map New forecast layout! Learn more

10-Day Weather Forecast

Advertisements
Track Severe Weather on mobile